PWSweather.com
Personal Weather Stations
Station Observations
GJCMGHG
Düsseldorf, MoenchengladbachDE 41199

DüsseldorfMoenchengladbachDE 41199

Lat: 51.13588, Lon: 6.46554

Elevation: 279

Station Type: Davis Vantage Pro 2

http://www.livewetter.org

Latest ConditionsUpdated 8:32:02 PM GMT+01:01 Friday, Feb 22, 2019
Currently Today's Max Today's Min Today's Average
Temperature 44.8°F7.1°C 54.3°F12.4°C 44.8°F7.1°C 49.2°F9.6°C
Dew Point 41.7°F5.4°C 49.3°F9.6°C 41.5°F5.3°C 46.6°F8.1°C
Winds Calm Calm 2.0 mph -3.2 kmh - - 0.5 mph 0.8 kmh
Wind Gusts -- 4.0 mph6.4 kmh - -
Humidity 89% 96% 75% 91%
Pressure 30.68 in1038.9 mb 30.68 in1038.9 mb 30.48 in1032.2 mb -
Precipitation - 0.05 in1.3 mm - -
Hour Temp Dew Point Humidity Winds Wind Gusts Pressure Precip Precip Rate Daily Precip Total
08:32 PM 44.8°F7.1°C 41.7°F5.4°C 89% Calm Calm -- 30.68 in1038.9 mb - 0.00 in0.0 mm 0.05 in1.3 mm
08:27 PM 45.0°F7.2°C 41.9°F5.5°C 89% Calm Calm -- 30.67 in1038.6 mb - 0.00 in0.0 mm 0.05 in1.3 mm
08:22 PM 45.1°F7.3°C 42.1°F5.6°C 89% Calm Calm -- 30.67 in1038.6 mb - 0.00 in0.0 mm 0.05 in1.3 mm
08:17 PM 45.3°F7.4°C 42.3°F5.7°C 89% Calm Calm -- 30.67 in1038.6 mb - 0.00 in0.0 mm 0.05 in1.3 mm
08:12 PM 45.1°F7.3°C 42.1°F5.6°C 89% Calm Calm -- 30.67 in1038.6 mb - 0.00 in0.0 mm 0.05 in1.3 mm
08:07 PM 44.8°F7.1°C 41.7°F5.4°C 89% Calm Calm -- 30.66 in1038.3 mb - 0.00 in0.0 mm 0.05 in1.3 mm
08:02 PM 45.0°F7.2°C 41.5°F5.3°C 88% Calm Calm -- 30.66 in1038.3 mb - 0.00 in0.0 mm 0.05 in1.3 mm
07:57 PM 45.1°F7.3°C 41.5°F5.3°C 87% Calm Calm -- 30.67 in1038.6 mb - 0.00 in0.0 mm 0.05 in1.3 mm
07:52 PM 45.5°F7.5°C 41.9°F5.5°C 87% Calm Calm -- 30.68 in1038.9 mb - 0.00 in0.0 mm 0.05 in1.3 mm
07:47 PM 45.9°F7.7°C 41.9°F5.5°C 86% Calm Calm -- 30.67 in1038.6 mb - 0.00 in0.0 mm 0.05 in1.3 mm
07:42 PM 46.2°F7.9°C 42.3°F5.7°C 86% Calm Calm -- 30.67 in1038.6 mb - 0.00 in0.0 mm 0.05 in1.3 mm
07:37 PM 46.6°F8.1°C 42.6°F5.9°C 86% Calm Calm -- 30.67 in1038.6 mb - 0.00 in0.0 mm 0.05 in1.3 mm
07:32 PM 46.8°F8.2°C 43.2°F6.2°C 87% Calm Calm -- 30.67 in1038.6 mb - 0.00 in0.0 mm 0.05 in1.3 mm
07:27 PM 46.6°F8.1°C 43.2°F6.2°C 88% Calm Calm -- 30.67 in1038.6 mb - 0.00 in0.0 mm 0.05 in1.3 mm
07:22 PM 45.7°F7.6°C 43.0°F6.1°C 90% Calm Calm -- 30.68 in1038.9 mb - 0.00 in0.0 mm 0.05 in1.3 mm
07:17 PM 45.3°F7.4°C 42.3°F5.7°C 89% Calm Calm -- 30.68 in1038.9 mb - 0.00 in0.0 mm 0.05 in1.3 mm
07:12 PM 45.3°F7.4°C 41.9°F5.5°C 88% Calm Calm -- 30.68 in1038.9 mb - 0.00 in0.0 mm 0.05 in1.3 mm
07:07 PM 45.5°F7.5°C 41.9°F5.5°C 87% Calm Calm -- 30.68 in1038.9 mb - 0.00 in0.0 mm 0.05 in1.3 mm
07:02 PM 45.9°F7.7°C 42.3°F5.7°C 87% Calm Calm -- 30.68 in1038.9 mb - 0.00 in0.0 mm 0.05 in1.3 mm
06:57 PM 46.0°F7.8°C 42.4°F5.8°C 87% Calm Calm -- 30.68 in1038.9 mb - 0.00 in0.0 mm 0.05 in1.3 mm
06:52 PM 46.4°F8.0°C 42.4°F5.8°C 86% Calm Calm -- 30.68 in1038.9 mb - 0.00 in0.0 mm 0.05 in1.3 mm
06:47 PM 46.8°F8.2°C 42.4°F5.8°C 85% Calm Calm -- 30.68 in1038.9 mb - 0.00 in0.0 mm 0.05 in1.3 mm
06:42 PM 47.1°F8.4°C 42.8°F6.0°C 85% Calm Calm -- 30.67 in1038.6 mb - 0.00 in0.0 mm 0.05 in1.3 mm
06:37 PM 47.7°F8.7°C 43.0°F6.1°C 84% Calm Calm -- 30.67 in1038.6 mb - 0.00 in0.0 mm 0.05 in1.3 mm
06:32 PM 48.0°F8.9°C 43.3°F6.3°C 84% Calm Calm -- 30.67 in1038.6 mb - 0.00 in0.0 mm 0.05 in1.3 mm
06:27 PM 48.6°F9.2°C 43.7°F6.5°C 83% Calm Calm -- 30.67 in1038.6 mb - 0.00 in0.0 mm 0.05 in1.3 mm
06:22 PM 49.1°F9.5°C 43.9°F6.6°C 82% Calm Calm -- 30.67 in1038.6 mb - 0.00 in0.0 mm 0.05 in1.3 mm
06:17 PM 49.6°F9.8°C 44.1°F6.7°C 81% Calm Calm -- 30.67 in1038.6 mb - 0.00 in0.0 mm 0.05 in1.3 mm
06:12 PM 50.2°F10.1°C 44.6°F7.0°C 81% Calm Calm -- 30.66 in1038.3 mb - 0.00 in0.0 mm 0.05 in1.3 mm
06:07 PM 50.7°F10.4°C 45.1°F7.3°C 81% Calm Calm -- 30.66 in1038.3 mb - 0.00 in0.0 mm 0.05 in1.3 mm
06:02 PM 51.1°F10.6°C 45.1°F7.3°C 80% Calm Calm -- 30.66 in1038.3 mb - 0.00 in0.0 mm 0.05 in1.3 mm
05:57 PM 51.6°F10.9°C 45.7°F7.6°C 80% Calm Calm -- 30.66 in1038.3 mb - 0.00 in0.0 mm 0.05 in1.3 mm
05:52 PM 52.0°F11.1°C 45.7°F7.6°C 79% Calm Calm -- 30.66 in1038.3 mb - 0.00 in0.0 mm 0.05 in1.3 mm
05:47 PM 52.3°F11.3°C 46.0°F7.8°C 79% Calm Calm -- 30.66 in1038.3 mb - 0.00 in0.0 mm 0.05 in1.3 mm
05:42 PM 52.7°F11.5°C 46.0°F7.8°C 78% Calm Calm -- 30.66 in1038.3 mb - 0.00 in0.0 mm 0.05 in1.3 mm
05:37 PM 53.1°F11.7°C 46.4°F8.0°C 78% Calm Calm -- 30.66 in1038.3 mb - 0.00 in0.0 mm 0.05 in1.3 mm
05:32 PM 53.4°F11.9°C 46.4°F8.0°C 77% 0.9 mph ENE1.4 kmh ENE -- 30.66 in1038.3 mb - 0.00 in0.0 mm 0.05 in1.3 mm
05:27 PM 53.6°F12.0°C 46.2°F7.9°C 76% 0.9 mph ENE1.4 kmh ENE -- 30.66 in1038.3 mb - 0.00 in0.0 mm 0.05 in1.3 mm
05:22 PM 54.0°F12.2°C 46.2°F7.9°C 75% 0.9 mph ENE1.4 kmh ENE 0.9 mph1.4 kmh 30.66 in1038.3 mb - 0.00 in0.0 mm 0.04 in1.0 mm
05:17 PM 54.1°F12.3°C 46.4°F8.0°C 75% 0.9 mph ENE1.4 kmh ENE 2.0 mph3.2 kmh 30.66 in1038.3 mb - 0.00 in0.0 mm 0.04 in1.0 mm
05:12 PM 54.1°F12.3°C 47.1°F8.4°C 77% Calm Calm 0.9 mph1.4 kmh 30.66 in1038.3 mb - 0.00 in0.0 mm 0.04 in1.0 mm
05:07 PM 54.1°F12.3°C 47.5°F8.6°C 78% Calm Calm -- 30.66 in1038.3 mb - 0.00 in0.0 mm 0.04 in1.0 mm
05:02 PM 54.1°F12.3°C 47.5°F8.6°C 78% Calm Calm -- 30.66 in1038.3 mb - 0.00 in0.0 mm 0.04 in1.0 mm
04:57 PM 54.0°F12.2°C 47.3°F8.5°C 78% Calm Calm -- 30.66 in1038.3 mb - 0.00 in0.0 mm 0.04 in1.0 mm
04:52 PM 54.1°F12.3°C 47.1°F8.4°C 77% Calm Calm -- 30.66 in1038.3 mb - 0.00 in0.0 mm 0.04 in1.0 mm
04:47 PM 54.0°F12.2°C 47.3°F8.5°C 78% Calm Calm -- 30.66 in1038.3 mb - 0.00 in0.0 mm 0.04 in1.0 mm
04:42 PM 54.0°F12.2°C 47.3°F8.5°C 78% Calm Calm -- 30.66 in1038.3 mb - 0.00 in0.0 mm 0.04 in1.0 mm
04:37 PM 54.0°F12.2°C 47.3°F8.5°C 78% Calm Calm -- 30.66 in1038.3 mb - 0.00 in0.0 mm 0.04 in1.0 mm
04:32 PM 54.0°F12.2°C 47.3°F8.5°C 78% Calm Calm -- 30.66 in1038.3 mb - 0.00 in0.0 mm 0.04 in1.0 mm
04:27 PM 54.0°F12.2°C 47.7°F8.7°C 79% Calm Calm -- 30.66 in1038.3 mb - 0.00 in0.0 mm 0.04 in1.0 mm
04:22 PM 54.0°F12.2°C 47.7°F8.7°C 79% Calm Calm -- 30.66 in1038.3 mb - 0.00 in0.0 mm 0.04 in1.0 mm
04:17 PM 53.8°F12.1°C 48.0°F8.9°C 81% Calm Calm -- 30.66 in1038.3 mb - 0.00 in0.0 mm 0.04 in1.0 mm
04:12 PM 53.8°F12.1°C 48.4°F9.1°C 82% Calm Calm -- 30.66 in1038.3 mb - 0.00 in0.0 mm 0.04 in1.0 mm
04:07 PM 53.4°F11.9°C 48.0°F8.9°C 82% Calm Calm -- 30.65 in1037.9 mb - 0.00 in0.0 mm 0.04 in1.0 mm
04:02 PM 53.4°F11.9°C 48.0°F8.9°C 82% Calm Calm -- 30.66 in1038.3 mb - 0.00 in0.0 mm 0.04 in1.0 mm
03:57 PM 53.4°F11.9°C 48.0°F8.9°C 82% Calm Calm -- 30.65 in1037.9 mb - 0.00 in0.0 mm 0.04 in1.0 mm
03:52 PM 53.4°F11.9°C 48.4°F9.1°C 83% Calm Calm -- 30.66 in1038.3 mb - 0.00 in0.0 mm 0.04 in1.0 mm
03:47 PM 53.8°F12.1°C 48.7°F9.3°C 83% 0.9 mph NNE1.4 kmh NNE -- 30.66 in1038.3 mb - 0.00 in0.0 mm 0.04 in1.0 mm
03:42 PM 53.8°F12.1°C 48.7°F9.3°C 83% 0.9 mph NNE1.4 kmh NNE 0.9 mph1.4 kmh 30.66 in1038.3 mb - 0.00 in0.0 mm 0.04 in1.0 mm
03:37 PM 53.6°F12.0°C 48.6°F9.2°C 83% 0.9 mph NNE1.4 kmh NNE -- 30.66 in1038.3 mb - 0.00 in0.0 mm 0.04 in1.0 mm
03:32 PM 53.6°F12.0°C 48.6°F9.2°C 83% 0.9 mph NE1.4 kmh NE 4.0 mph6.4 kmh 30.65 in1037.9 mb - 0.00 in0.0 mm 0.04 in1.0 mm
03:27 PM 53.6°F12.0°C 48.6°F9.2°C 83% 0.9 mph NNE1.4 kmh NNE -- 30.65 in1037.9 mb - 0.00 in0.0 mm 0.04 in1.0 mm
03:22 PM 53.6°F12.0°C 48.6°F9.2°C 83% 0.9 mph NNE1.4 kmh NNE -- 30.65 in1037.9 mb - 0.00 in0.0 mm 0.04 in1.0 mm
03:17 PM 53.8°F12.1°C 48.7°F9.3°C 83% 0.9 mph N1.4 kmh N 0.9 mph1.4 kmh 30.65 in1037.9 mb - 0.00 in0.0 mm 0.04 in1.0 mm
03:12 PM 54.0°F12.2°C 48.9°F9.4°C 83% 2.0 mph NNE3.2 kmh NNE 0.9 mph1.4 kmh 30.65 in1037.9 mb - 0.00 in0.0 mm 0.04 in1.0 mm
03:07 PM 54.0°F12.2°C 48.9°F9.4°C 83% 0.9 mph N1.4 kmh N 4.0 mph6.4 kmh 30.65 in1037.9 mb - 0.00 in0.0 mm 0.04 in1.0 mm
03:02 PM 54.1°F12.3°C 48.7°F9.3°C 82% Calm Calm 2.0 mph3.2 kmh 30.65 in1037.9 mb - 0.00 in0.0 mm 0.04 in1.0 mm
02:57 PM 54.0°F12.2°C 48.6°F9.2°C 82% Calm Calm -- 30.66 in1038.3 mb - 0.00 in0.0 mm 0.04 in1.0 mm
02:52 PM 54.1°F12.3°C 49.1°F9.5°C 83% Calm Calm -- 30.66 in1038.3 mb - 0.00 in0.0 mm 0.04 in1.0 mm
02:47 PM 54.3°F12.4°C 48.9°F9.4°C 82% 0.9 mph NE1.4 kmh NE 0.9 mph1.4 kmh 30.66 in1038.3 mb - 0.00 in0.0 mm 0.04 in1.0 mm
02:42 PM 54.1°F12.3°C 49.1°F9.5°C 83% Calm Calm 0.9 mph1.4 kmh 30.66 in1038.3 mb - 0.00 in0.0 mm 0.04 in1.0 mm
02:37 PM 53.8°F12.1°C 49.1°F9.5°C 84% Calm Calm -- 30.66 in1038.3 mb - 0.00 in0.0 mm 0.04 in1.0 mm
02:32 PM 53.1°F11.7°C 48.9°F9.4°C 86% Calm Calm -- 30.66 in1038.3 mb - 0.00 in0.0 mm 0.04 in1.0 mm
02:27 PM 52.7°F11.5°C 48.4°F9.1°C 85% Calm Calm -- 30.66 in1038.3 mb - 0.00 in0.0 mm 0.04 in1.0 mm
02:22 PM 52.7°F11.5°C 48.4°F9.1°C 85% 0.9 mph NNE1.4 kmh NNE -- 30.65 in1037.9 mb - 0.00 in0.0 mm 0.04 in1.0 mm
02:17 PM 52.9°F11.6°C 48.7°F9.3°C 86% 0.9 mph N1.4 kmh N 0.9 mph1.4 kmh 30.66 in1038.3 mb - 0.00 in0.0 mm 0.04 in1.0 mm
02:12 PM 52.7°F11.5°C 48.9°F9.4°C 87% 0.9 mph N1.4 kmh N 2.0 mph3.2 kmh 30.65 in1037.9 mb - 0.00 in0.0 mm 0.04 in1.0 mm
02:07 PM 52.3°F11.3°C 48.9°F9.4°C 88% 0.9 mph N1.4 kmh N 2.9 mph4.7 kmh 30.65 in1037.9 mb - 0.00 in0.0 mm 0.04 in1.0 mm
02:02 PM 52.2°F11.2°C 48.4°F9.1°C 87% 0.9 mph N1.4 kmh N 0.9 mph1.4 kmh 30.65 in1037.9 mb - 0.00 in0.0 mm 0.04 in1.0 mm
01:57 PM 52.2°F11.2°C 48.4°F9.1°C 87% 2.0 mph N3.2 kmh N 0.9 mph1.4 kmh 30.65 in1037.9 mb - 0.00 in0.0 mm 0.04 in1.0 mm
01:52 PM 52.2°F11.2°C 48.7°F9.3°C 88% 0.9 mph N1.4 kmh N -- 30.65 in1037.9 mb - 0.00 in0.0 mm 0.04 in1.0 mm
01:47 PM 52.2°F11.2°C 49.1°F9.5°C 89% Calm Calm 2.0 mph3.2 kmh 30.65 in1037.9 mb - 0.00 in0.0 mm 0.04 in1.0 mm
01:42 PM 52.0°F11.1°C 49.1°F9.5°C 90% 0.9 mph N1.4 kmh N -- 30.65 in1037.9 mb - 0.00 in0.0 mm 0.04 in1.0 mm
01:37 PM 51.6°F10.9°C 48.7°F9.3°C 90% 0.9 mph N1.4 kmh N -- 30.65 in1037.9 mb - 0.00 in0.0 mm 0.04 in1.0 mm
01:32 PM 51.3°F10.7°C 48.7°F9.3°C 91% Calm Calm -- 30.64 in1037.6 mb - 0.00 in0.0 mm 0.04 in1.0 mm
01:27 PM 51.1°F10.6°C 48.9°F9.4°C 92% Calm Calm -- 30.64 in1037.6 mb - 0.00 in0.0 mm 0.04 in1.0 mm
01:22 PM 50.7°F10.4°C 48.2°F9.0°C 91% 0.9 mph N1.4 kmh N -- 30.65 in1037.9 mb - 0.00 in0.0 mm 0.04 in1.0 mm
01:17 PM 50.7°F10.4°C 48.7°F9.3°C 93% 0.9 mph N1.4 kmh N -- 30.65 in1037.9 mb - 0.00 in0.0 mm 0.04 in1.0 mm
01:12 PM 50.7°F10.4°C 49.1°F9.5°C 94% 0.9 mph N1.4 kmh N -- 30.65 in1037.9 mb - 0.00 in0.0 mm 0.04 in1.0 mm
01:07 PM 50.7°F10.4°C 49.3°F9.6°C 95% Calm Calm 2.0 mph3.2 kmh 30.65 in1037.9 mb - 0.00 in0.0 mm 0.04 in1.0 mm
01:02 PM 50.4°F10.2°C 48.9°F9.4°C 95% Calm Calm -- 30.66 in1038.3 mb - 0.00 in0.0 mm 0.04 in1.0 mm
12:57 PM 50.2°F10.1°C 48.7°F9.3°C 95% Calm Calm -- 30.66 in1038.3 mb - 0.00 in0.0 mm 0.04 in1.0 mm
12:52 PM 50.2°F10.1°C 48.7°F9.3°C 95% Calm Calm -- 30.65 in1037.9 mb - 0.00 in0.0 mm 0.04 in1.0 mm
12:47 PM 50.0°F10.0°C 48.6°F9.2°C 95% Calm Calm -- 30.66 in1038.3 mb - 0.00 in0.0 mm 0.04 in1.0 mm
12:42 PM 50.0°F10.0°C 48.9°F9.4°C 96% Calm Calm -- 30.66 in1038.3 mb - 0.00 in0.0 mm 0.04 in1.0 mm
12:37 PM 49.8°F9.9°C 48.7°F9.3°C 96% Calm Calm -- 30.65 in1037.9 mb - 0.00 in0.0 mm 0.04 in1.0 mm
12:32 PM 49.6°F9.8°C 48.6°F9.2°C 96% Calm Calm -- 30.65 in1037.9 mb - 0.00 in0.0 mm 0.04 in1.0 mm
12:27 PM 49.6°F9.8°C 48.6°F9.2°C 96% Calm Calm -- 30.65 in1037.9 mb - 0.00 in0.0 mm 0.04 in1.0 mm
12:22 PM 49.6°F9.8°C 48.6°F9.2°C 96% Calm Calm -- 30.66 in1038.3 mb - 0.00 in0.0 mm 0.04 in1.0 mm
12:17 PM 49.5°F9.7°C 48.4°F9.1°C 96% Calm Calm -- 30.65 in1037.9 mb - 0.00 in0.0 mm 0.04 in1.0 mm
12:12 PM 49.3°F9.6°C 48.2°F9.0°C 96% Calm Calm -- 30.65 in1037.9 mb - 0.00 in0.0 mm 0.04 in1.0 mm
12:07 PM 49.5°F9.7°C 48.4°F9.1°C 96% Calm Calm -- 30.65 in1037.9 mb - 0.00 in0.0 mm 0.04 in1.0 mm
12:02 PM 49.3°F9.6°C 48.2°F9.0°C 96% Calm Calm -- 30.65 in1037.9 mb - 0.00 in0.0 mm 0.04 in1.0 mm
11:57 AM 49.1°F9.5°C 48.0°F8.9°C 96% Calm Calm -- 30.64 in1037.6 mb - 0.00 in0.0 mm 0.04 in1.0 mm
11:52 AM 48.9°F9.4°C 47.8°F8.8°C 96% Calm Calm -- 30.64 in1037.6 mb - 0.00 in0.0 mm 0.04 in1.0 mm
11:47 AM 48.9°F9.4°C 47.8°F8.8°C 96% 0.9 mph N1.4 kmh N -- 30.64 in1037.6 mb - 0.00 in0.0 mm 0.04 in1.0 mm
11:42 AM 48.7°F9.3°C 47.7°F8.7°C 96% 0.9 mph N1.4 kmh N 0.9 mph1.4 kmh 30.64 in1037.6 mb - 0.00 in0.0 mm 0.04 in1.0 mm
11:37 AM 48.6°F9.2°C 47.5°F8.6°C 96% 0.9 mph N1.4 kmh N -- 30.64 in1037.6 mb - 0.00 in0.0 mm 0.04 in1.0 mm
11:32 AM 48.6°F9.2°C 47.5°F8.6°C 96% Calm Calm 2.0 mph3.2 kmh 30.64 in1037.6 mb - 0.00 in0.0 mm 0.04 in1.0 mm
11:27 AM 48.7°F9.3°C 47.7°F8.7°C 96% Calm Calm -- 30.64 in1037.6 mb - 0.00 in0.0 mm 0.04 in1.0 mm
11:22 AM 48.6°F9.2°C 47.5°F8.6°C 96% Calm Calm -- 30.64 in1037.6 mb - 0.00 in0.0 mm 0.04 in1.0 mm
11:17 AM 48.6°F9.2°C 47.5°F8.6°C 96% Calm Calm -- 30.64 in1037.6 mb - 0.00 in0.0 mm 0.04 in1.0 mm
11:12 AM 48.6°F9.2°C 47.5°F8.6°C 96% Calm Calm -- 30.64 in1037.6 mb - 0.00 in0.0 mm 0.04 in1.0 mm
11:07 AM 48.4°F9.1°C 47.3°F8.5°C 96% Calm Calm -- 30.64 in1037.6 mb - 0.00 in0.0 mm 0.04 in1.0 mm
11:02 AM 48.4°F9.1°C 47.3°F8.5°C 96% Calm Calm -- 30.64 in1037.6 mb - 0.00 in0.0 mm 0.04 in1.0 mm
10:57 AM 48.2°F9.0°C 47.1°F8.4°C 96% Calm Calm -- 30.64 in1037.6 mb - 0.00 in0.0 mm 0.04 in1.0 mm
10:52 AM 48.0°F8.9°C 46.9°F8.3°C 96% Calm Calm -- 30.64 in1037.6 mb - 0.00 in0.0 mm 0.04 in1.0 mm
10:47 AM 48.0°F8.9°C 46.9°F8.3°C 96% 0.9 mph N1.4 kmh N -- 30.63 in1037.3 mb - 0.00 in0.0 mm 0.04 in1.0 mm
10:42 AM 48.0°F8.9°C 46.9°F8.3°C 96% 0.9 mph N1.4 kmh N 0.9 mph1.4 kmh 30.64 in1037.6 mb - 0.00 in0.0 mm 0.04 in1.0 mm
10:37 AM 48.0°F8.9°C 46.9°F8.3°C 96% 0.9 mph NNW1.4 kmh NNW -- 30.64 in1037.6 mb - 0.00 in0.0 mm 0.04 in1.0 mm
10:32 AM 48.0°F8.9°C 46.9°F8.3°C 96% 0.9 mph NNW1.4 kmh NNW 0.9 mph1.4 kmh 30.63 in1037.3 mb - 0.00 in0.0 mm 0.04 in1.0 mm
10:27 AM 48.0°F8.9°C 46.9°F8.3°C 96% 0.9 mph NNW1.4 kmh NNW 0.9 mph1.4 kmh 30.63 in1037.3 mb - 0.00 in0.0 mm 0.04 in1.0 mm
10:22 AM 48.0°F8.9°C 46.9°F8.3°C 96% 0.9 mph NNW1.4 kmh NNW 0.9 mph1.4 kmh 30.63 in1037.3 mb - 0.00 in0.0 mm 0.04 in1.0 mm
10:17 AM 48.0°F8.9°C 46.9°F8.3°C 96% 0.9 mph NNE1.4 kmh NNE 2.0 mph3.2 kmh 30.63 in1037.3 mb - 0.00 in0.0 mm 0.04 in1.0 mm
10:12 AM 48.0°F8.9°C 46.9°F8.3°C 96% 0.9 mph 1.4 kmh 0.9 mph1.4 kmh 30.63 in1037.3 mb - 0.00 in0.0 mm 0.04 in1.0 mm
10:07 AM 48.0°F8.9°C 46.9°F8.3°C 96% Calm Calm 2.9 mph4.7 kmh 30.62 in1036.9 mb - 0.00 in0.0 mm 0.04 in1.0 mm
10:02 AM 48.0°F8.9°C 46.9°F8.3°C 96% Calm Calm -- 30.62 in1036.9 mb - 0.00 in0.0 mm 0.04 in1.0 mm
09:57 AM 48.0°F8.9°C 46.9°F8.3°C 96% Calm Calm -- 30.62 in1036.9 mb - 0.00 in0.0 mm 0.03 in0.8 mm
09:52 AM 48.0°F8.9°C 46.9°F8.3°C 96% Calm Calm -- 30.62 in1036.9 mb - 0.00 in0.0 mm 0.03 in0.8 mm
09:47 AM 48.0°F8.9°C 46.9°F8.3°C 96% Calm Calm -- 30.62 in1036.9 mb - 0.00 in0.0 mm 0.03 in0.8 mm
09:42 AM 48.0°F8.9°C 46.9°F8.3°C 96% Calm Calm -- 30.61 in1036.6 mb - 0.00 in0.0 mm 0.03 in0.8 mm
09:37 AM 48.0°F8.9°C 46.9°F8.3°C 96% Calm Calm -- 30.61 in1036.6 mb - 0.00 in0.0 mm 0.03 in0.8 mm
09:32 AM 48.0°F8.9°C 46.9°F8.3°C 96% Calm Calm -- 30.61 in1036.6 mb - 0.00 in0.0 mm 0.03 in0.8 mm
09:27 AM 48.0°F8.9°C 46.9°F8.3°C 96% Calm Calm -- 30.61 in1036.6 mb - 0.00 in0.0 mm 0.03 in0.8 mm
09:22 AM 48.0°F8.9°C 46.9°F8.3°C 96% Calm Calm -- 30.60 in1036.2 mb - 0.00 in0.0 mm 0.03 in0.8 mm
09:17 AM 47.8°F8.8°C 46.8°F8.2°C 96% Calm Calm -- 30.60 in1036.2 mb - 0.00 in0.0 mm 0.03 in0.8 mm
09:12 AM 47.8°F8.8°C 46.8°F8.2°C 96% Calm Calm -- 30.60 in1036.2 mb - 0.00 in0.0 mm 0.03 in0.8 mm
09:07 AM 47.8°F8.8°C 46.8°F8.2°C 96% Calm Calm -- 30.60 in1036.2 mb - 0.00 in0.0 mm 0.03 in0.8 mm
09:02 AM 47.8°F8.8°C 46.8°F8.2°C 96% 0.9 mph NW1.4 kmh NW -- 30.60 in1036.2 mb - 0.00 in0.0 mm 0.03 in0.8 mm
08:57 AM 48.0°F8.9°C 46.9°F8.3°C 96% 0.9 mph NW1.4 kmh NW -- 30.59 in1035.9 mb - 0.00 in0.0 mm 0.03 in0.8 mm
08:52 AM 47.8°F8.8°C 46.8°F8.2°C 96% Calm Calm -- 30.59 in1035.9 mb - 0.00 in0.0 mm 0.03 in0.8 mm
08:47 AM 48.0°F8.9°C 46.9°F8.3°C 96% Calm Calm 2.0 mph3.2 kmh 30.59 in1035.9 mb - 0.00 in0.0 mm 0.03 in0.8 mm
08:42 AM 47.8°F8.8°C 46.8°F8.2°C 96% Calm Calm 0.9 mph1.4 kmh 30.59 in1035.9 mb - 0.00 in0.0 mm 0.03 in0.8 mm
08:37 AM 47.8°F8.8°C 46.8°F8.2°C 96% Calm Calm -- 30.58 in1035.6 mb - 0.00 in0.0 mm 0.02 in0.5 mm
08:32 AM 47.8°F8.8°C 46.8°F8.2°C 96% Calm Calm -- 30.58 in1035.6 mb - 0.00 in0.0 mm 0.02 in0.5 mm
08:27 AM 47.8°F8.8°C 46.8°F8.2°C 96% Calm Calm -- 30.58 in1035.6 mb - 0.00 in0.0 mm 0.02 in0.5 mm
08:22 AM 47.8°F8.8°C 46.8°F8.2°C 96% Calm Calm -- 30.58 in1035.6 mb - 0.00 in0.0 mm 0.02 in0.5 mm
08:17 AM 47.7°F8.7°C 46.6°F8.1°C 96% Calm Calm -- 30.58 in1035.6 mb - 0.00 in0.0 mm 0.02 in0.5 mm
08:12 AM 47.7°F8.7°C 46.6°F8.1°C 96% Calm Calm -- 30.58 in1035.6 mb - 0.00 in0.0 mm 0.02 in0.5 mm
08:07 AM 47.7°F8.7°C 46.6°F8.1°C 96% Calm Calm -- 30.58 in1035.6 mb - 0.00 in0.0 mm 0.02 in0.5 mm
08:02 AM 47.8°F8.8°C 46.8°F8.2°C 96% 0.9 mph NW1.4 kmh NW -- 30.57 in1035.2 mb - 0.00 in0.0 mm 0.02 in0.5 mm
07:57 AM 47.7°F8.7°C 46.6°F8.1°C 96% 0.9 mph NW1.4 kmh NW -- 30.58 in1035.6 mb - 0.00 in0.0 mm 0.02 in0.5 mm
07:52 AM 47.7°F8.7°C 46.6°F8.1°C 96% Calm Calm 0.9 mph1.4 kmh 30.57 in1035.2 mb - 0.00 in0.0 mm 0.02 in0.5 mm
07:47 AM 47.7°F8.7°C 46.6°F8.1°C 96% Calm Calm -- 30.57 in1035.2 mb - 0.00 in0.0 mm 0.02 in0.5 mm
07:42 AM 47.7°F8.7°C 46.6°F8.1°C 96% Calm Calm 2.0 mph3.2 kmh 30.57 in1035.2 mb - 0.00 in0.0 mm 0.02 in0.5 mm
07:37 AM 47.7°F8.7°C 46.6°F8.1°C 96% Calm Calm -- 30.57 in1035.2 mb - 0.00 in0.0 mm 0.02 in0.5 mm
07:32 AM 47.7°F8.7°C 46.6°F8.1°C 96% 0.9 mph NW1.4 kmh NW 0.9 mph1.4 kmh 30.57 in1035.2 mb - 0.00 in0.0 mm 0.02 in0.5 mm
07:27 AM 47.7°F8.7°C 46.6°F8.1°C 96% 0.9 mph NW1.4 kmh NW 2.0 mph3.2 kmh 30.57 in1035.2 mb - 0.00 in0.0 mm 0.02 in0.5 mm
07:22 AM 47.7°F8.7°C 46.6°F8.1°C 96% 0.9 mph NW1.4 kmh NW -- 30.56 in1034.9 mb - 0.00 in0.0 mm 0.02 in0.5 mm
07:17 AM 47.7°F8.7°C 46.6°F8.1°C 96% 0.9 mph NW1.4 kmh NW 0.9 mph1.4 kmh 30.56 in1034.9 mb - 0.00 in0.0 mm 0.02 in0.5 mm
07:12 AM 47.7°F8.7°C 46.6°F8.1°C 96% Calm Calm -- 30.56 in1034.9 mb - 0.00 in0.0 mm 0.02 in0.5 mm
07:07 AM 47.7°F8.7°C 46.6°F8.1°C 96% 0.9 mph W1.4 kmh W -- 30.56 in1034.9 mb - 0.00 in0.0 mm 0.02 in0.5 mm
07:02 AM 47.7°F8.7°C 46.6°F8.1°C 96% 0.9 mph W1.4 kmh W -- 30.56 in1034.9 mb - 0.00 in0.0 mm 0.02 in0.5 mm
06:57 AM 47.7°F8.7°C 46.6°F8.1°C 96% 2.0 mph WSW3.2 kmh WSW 2.9 mph4.7 kmh 30.56 in1034.9 mb - 0.00 in0.0 mm 0.02 in0.5 mm
06:52 AM 47.7°F8.7°C 46.6°F8.1°C 96% 2.0 mph NW3.2 kmh NW 2.0 mph3.2 kmh 30.56 in1034.9 mb - 0.00 in0.0 mm 0.02 in0.5 mm
06:47 AM 47.7°F8.7°C 46.6°F8.1°C 96% 0.9 mph NW1.4 kmh NW 2.0 mph3.2 kmh 30.56 in1034.9 mb - 0.00 in0.0 mm 0.02 in0.5 mm
06:42 AM 47.7°F8.7°C 46.2°F7.9°C 95% 0.9 mph WNW1.4 kmh WNW 2.9 mph4.7 kmh 30.56 in1034.9 mb - 0.00 in0.0 mm 0.02 in0.5 mm
06:37 AM 47.7°F8.7°C 46.2°F7.9°C 95% 2.0 mph NW3.2 kmh NW -- 30.56 in1034.9 mb - 0.00 in0.0 mm 0.02 in0.5 mm
06:32 AM 47.7°F8.7°C 46.2°F7.9°C 95% 0.9 mph NW1.4 kmh NW 2.0 mph3.2 kmh 30.55 in1034.5 mb - 0.00 in0.0 mm 0.02 in0.5 mm
06:27 AM 47.7°F8.7°C 46.2°F7.9°C 95% 0.9 mph NW1.4 kmh NW 0.9 mph1.4 kmh 30.55 in1034.5 mb - 0.00 in0.0 mm 0.02 in0.5 mm
06:22 AM 47.7°F8.7°C 46.2°F7.9°C 95% Calm Calm -- 30.55 in1034.5 mb - 0.00 in0.0 mm 0.02 in0.5 mm
06:17 AM 47.7°F8.7°C 46.2°F7.9°C 95% 0.9 mph NW1.4 kmh NW -- 30.55 in1034.5 mb - 0.00 in0.0 mm 0.02 in0.5 mm
06:12 AM 47.7°F8.7°C 46.2°F7.9°C 95% 0.9 mph W1.4 kmh W -- 30.55 in1034.5 mb - 0.00 in0.0 mm 0.02 in0.5 mm
06:07 AM 47.8°F8.8°C 46.4°F8.0°C 95% 0.9 mph W1.4 kmh W 0.9 mph1.4 kmh 30.55 in1034.5 mb - 0.00 in0.0 mm 0.02 in0.5 mm
06:02 AM 47.7°F8.7°C 46.2°F7.9°C 95% 0.9 mph W1.4 kmh W -- 30.54 in1034.2 mb - 0.00 in0.0 mm 0.02 in0.5 mm
05:57 AM 47.7°F8.7°C 46.2°F7.9°C 95% 0.9 mph WNW1.4 kmh WNW 0.9 mph1.4 kmh 30.54 in1034.2 mb - 0.00 in0.0 mm 0.02 in0.5 mm
05:52 AM 47.7°F8.7°C 46.2°F7.9°C 95% Calm Calm -- 30.54 in1034.2 mb - 0.00 in0.0 mm 0.02 in0.5 mm
05:47 AM 47.7°F8.7°C 46.2°F7.9°C 95% Calm Calm -- 30.54 in1034.2 mb - 0.00 in0.0 mm 0.02 in0.5 mm
05:42 AM 47.7°F8.7°C 46.2°F7.9°C 95% 0.9 mph W1.4 kmh W -- 30.54 in1034.2 mb - 0.00 in0.0 mm 0.02 in0.5 mm
05:37 AM 47.7°F8.7°C 46.2°F7.9°C 95% 0.9 mph W1.4 kmh W 0.9 mph1.4 kmh 30.54 in1034.2 mb - 0.00 in0.0 mm 0.02 in0.5 mm
05:32 AM 47.7°F8.7°C 46.2°F7.9°C 95% 0.9 mph WSW1.4 kmh WSW 0.9 mph1.4 kmh 30.54 in1034.2 mb - 0.00 in0.0 mm 0.02 in0.5 mm
05:27 AM 47.7°F8.7°C 46.2°F7.9°C 95% 0.9 mph WSW1.4 kmh WSW -- 30.54 in1034.2 mb - 0.00 in0.0 mm 0.02 in0.5 mm
05:22 AM 47.7°F8.7°C 46.2°F7.9°C 95% 0.9 mph W1.4 kmh W -- 30.53 in1033.9 mb - 0.00 in0.0 mm 0.01 in0.3 mm
05:17 AM 47.7°F8.7°C 46.2°F7.9°C 95% Calm Calm -- 30.54 in1034.2 mb - 0.00 in0.0 mm 0.01 in0.3 mm
05:12 AM 47.7°F8.7°C 46.2°F7.9°C 95% 0.9 mph W1.4 kmh W -- 30.53 in1033.9 mb - 0.00 in0.0 mm 0.01 in0.3 mm
05:07 AM 47.8°F8.8°C 46.4°F8.0°C 95% 0.9 mph W1.4 kmh W 2.0 mph3.2 kmh 30.53 in1033.9 mb - 0.00 in0.0 mm 0.01 in0.3 mm
05:02 AM 47.8°F8.8°C 46.4°F8.0°C 95% 0.9 mph W1.4 kmh W 0.9 mph1.4 kmh 30.53 in1033.9 mb - 0.00 in0.0 mm 0.01 in0.3 mm
04:57 AM 47.8°F8.8°C 46.4°F8.0°C 95% 0.9 mph W1.4 kmh W 2.0 mph3.2 kmh 30.53 in1033.9 mb - 0.00 in0.0 mm 0.01 in0.3 mm
04:52 AM 47.8°F8.8°C 46.4°F8.0°C 95% 0.9 mph WSW1.4 kmh WSW -- 30.53 in1033.9 mb - 0.00 in0.0 mm 0.01 in0.3 mm
04:47 AM 47.8°F8.8°C 46.4°F8.0°C 95% 0.9 mph W1.4 kmh W 2.0 mph3.2 kmh 30.52 in1033.5 mb - 0.00 in0.0 mm 0.01 in0.3 mm
04:42 AM 47.8°F8.8°C 46.4°F8.0°C 95% 2.0 mph SW3.2 kmh SW 2.0 mph3.2 kmh 30.52 in1033.5 mb - 0.00 in0.0 mm 0.01 in0.3 mm
04:37 AM 47.8°F8.8°C 46.4°F8.0°C 95% 2.0 mph WNW3.2 kmh WNW 0.9 mph1.4 kmh 30.53 in1033.9 mb - 0.00 in0.0 mm 0.01 in0.3 mm
04:32 AM 48.0°F8.9°C 46.6°F8.1°C 95% 2.0 mph WNW3.2 kmh WNW 2.0 mph3.2 kmh 30.52 in1033.5 mb - 0.00 in0.0 mm 0.01 in0.3 mm
04:27 AM 47.8°F8.8°C 46.4°F8.0°C 95% 2.0 mph W3.2 kmh W 2.0 mph3.2 kmh 30.52 in1033.5 mb - 0.00 in0.0 mm 0.01 in0.3 mm
04:22 AM 47.8°F8.8°C 46.4°F8.0°C 95% 0.9 mph WNW1.4 kmh WNW 2.9 mph4.7 kmh 30.52 in1033.5 mb - 0.00 in0.0 mm 0.01 in0.3 mm
04:17 AM 48.0°F8.9°C 46.6°F8.1°C 95% 0.9 mph SW1.4 kmh SW 0.9 mph1.4 kmh 30.52 in1033.5 mb - 0.00 in0.0 mm 0.01 in0.3 mm
04:12 AM 48.0°F8.9°C 46.6°F8.1°C 95% 0.9 mph WNW1.4 kmh WNW 0.9 mph1.4 kmh 30.52 in1033.5 mb - 0.00 in0.0 mm 0.01 in0.3 mm
04:07 AM 48.0°F8.9°C 46.6°F8.1°C 95% 0.9 mph WSW1.4 kmh WSW 0.9 mph1.4 kmh 30.52 in1033.5 mb - 0.00 in0.0 mm 0.01 in0.3 mm
04:02 AM 48.0°F8.9°C 46.6°F8.1°C 95% 0.9 mph SW1.4 kmh SW -- 30.52 in1033.5 mb - 0.00 in0.0 mm 0.01 in0.3 mm
03:57 AM 48.0°F8.9°C 46.6°F8.1°C 95% 2.0 mph WSW3.2 kmh WSW -- 30.52 in1033.5 mb - 0.00 in0.0 mm 0.01 in0.3 mm
03:52 AM 48.0°F8.9°C 46.6°F8.1°C 95% 2.0 mph WSW3.2 kmh WSW -- 30.52 in1033.5 mb - 0.00 in0.0 mm 0.01 in0.3 mm
03:47 AM 48.0°F8.9°C 46.6°F8.1°C 95% 0.9 mph WSW1.4 kmh WSW 2.9 mph4.7 kmh 30.52 in1033.5 mb - 0.00 in0.0 mm 0.01 in0.3 mm
03:42 AM 48.0°F8.9°C 46.6°F8.1°C 95% 0.9 mph NW1.4 kmh NW -- 30.52 in1033.5 mb - 0.00 in0.0 mm 0.01 in0.3 mm
03:37 AM 48.0°F8.9°C 46.6°F8.1°C 95% 0.9 mph WSW1.4 kmh WSW -- 30.52 in1033.5 mb - 0.00 in0.0 mm 0.01 in0.3 mm
03:32 AM 48.0°F8.9°C 46.6°F8.1°C 95% 0.9 mph WNW1.4 kmh WNW -- 30.52 in1033.5 mb - 0.00 in0.0 mm 0.01 in0.3 mm
03:27 AM 48.0°F8.9°C 46.6°F8.1°C 95% 0.9 mph NNE1.4 kmh NNE 2.0 mph3.2 kmh 30.52 in1033.5 mb - 0.00 in0.0 mm 0.01 in0.3 mm
03:22 AM 48.2°F9.0°C 46.8°F8.2°C 95% 0.9 mph W1.4 kmh W 2.9 mph4.7 kmh 30.52 in1033.5 mb - 0.00 in0.0 mm 0.01 in0.3 mm
03:17 AM 48.2°F9.0°C 46.8°F8.2°C 95% 0.9 mph WNW1.4 kmh WNW 0.9 mph1.4 kmh 30.52 in1033.5 mb - 0.00 in0.0 mm 0.01 in0.3 mm
03:12 AM 48.2°F9.0°C 46.8°F8.2°C 95% 2.0 mph WNW3.2 kmh WNW 2.0 mph3.2 kmh 30.51 in1033.2 mb - 0.00 in0.0 mm 0.01 in0.3 mm
03:07 AM 48.2°F9.0°C 46.8°F8.2°C 95% 2.0 mph WSW3.2 kmh WSW 0.9 mph1.4 kmh 30.51 in1033.2 mb - 0.00 in0.0 mm 0.01 in0.3 mm
03:02 AM 48.2°F9.0°C 46.8°F8.2°C 95% 2.0 mph WSW3.2 kmh WSW 0.9 mph1.4 kmh 30.51 in1033.2 mb - 0.00 in0.0 mm 0.01 in0.3 mm
02:57 AM 48.2°F9.0°C 46.8°F8.2°C 95% 2.0 mph WNW3.2 kmh WNW 2.9 mph4.7 kmh 30.51 in1033.2 mb - 0.00 in0.0 mm 0.00 in0.0 mm
02:52 AM 48.2°F9.0°C 46.8°F8.2°C 95% 0.9 mph WSW1.4 kmh WSW -- 30.51 in1033.2 mb - 0.00 in0.0 mm 0.00 in0.0 mm
02:47 AM 48.2°F9.0°C 46.8°F8.2°C 95% 0.9 mph WSW1.4 kmh WSW -- 30.51 in1033.2 mb - 0.00 in0.0 mm 0.00 in0.0 mm
02:42 AM 48.2°F9.0°C 46.8°F8.2°C 95% 0.9 mph W1.4 kmh W 2.0 mph3.2 kmh 30.51 in1033.2 mb - 0.00 in0.0 mm 0.00 in0.0 mm
02:37 AM 48.2°F9.0°C 46.8°F8.2°C 95% 0.9 mph WSW1.4 kmh WSW -- 30.51 in1033.2 mb - 0.00 in0.0 mm 0.00 in0.0 mm
02:32 AM 48.2°F9.0°C 46.6°F8.1°C 94% 0.9 mph SW1.4 kmh SW 2.0 mph3.2 kmh 30.51 in1033.2 mb - 0.00 in0.0 mm 0.00 in0.0 mm
02:27 AM 48.4°F9.1°C 46.8°F8.2°C 94% 0.9 mph SW1.4 kmh SW 0.9 mph1.4 kmh 30.51 in1033.2 mb - 0.00 in0.0 mm 0.00 in0.0 mm
02:22 AM 48.2°F9.0°C 46.6°F8.1°C 94% 0.9 mph SW1.4 kmh SW 2.0 mph3.2 kmh 30.51 in1033.2 mb - 0.00 in0.0 mm 0.00 in0.0 mm
02:17 AM 48.4°F9.1°C 46.8°F8.2°C 94% 0.9 mph WNW1.4 kmh WNW -- 30.51 in1033.2 mb - 0.00 in0.0 mm 0.00 in0.0 mm
02:12 AM 48.2°F9.0°C 46.6°F8.1°C 94% 0.9 mph WSW1.4 kmh WSW -- 30.51 in1033.2 mb - 0.00 in0.0 mm 0.00 in0.0 mm
02:07 AM 48.2°F9.0°C 46.6°F8.1°C 94% Calm Calm 2.0 mph3.2 kmh 30.51 in1033.2 mb - 0.00 in0.0 mm 0.00 in0.0 mm
02:02 AM 48.2°F9.0°C 46.6°F8.1°C 94% 0.9 mph W1.4 kmh W -- 30.51 in1033.2 mb - 0.00 in0.0 mm 0.00 in0.0 mm
01:57 AM 48.2°F9.0°C 46.6°F8.1°C 94% 0.9 mph W1.4 kmh W -- 30.51 in1033.2 mb - 0.00 in0.0 mm 0.00 in0.0 mm
01:52 AM 48.4°F9.1°C 46.8°F8.2°C 94% 0.9 mph NW1.4 kmh NW 2.0 mph3.2 kmh 30.51 in1033.2 mb - 0.00 in0.0 mm 0.00 in0.0 mm
01:47 AM 48.4°F9.1°C 46.8°F8.2°C 94% 0.9 mph WSW1.4 kmh WSW 2.0 mph3.2 kmh 30.51 in1033.2 mb - 0.00 in0.0 mm 0.00 in0.0 mm
01:42 AM 48.4°F9.1°C 46.8°F8.2°C 94% 0.9 mph SW1.4 kmh SW -- 30.50 in1032.8 mb - 0.00 in0.0 mm 0.00 in0.0 mm
01:37 AM 48.4°F9.1°C 46.8°F8.2°C 94% 0.9 mph W1.4 kmh W -- 30.50 in1032.8 mb - 0.00 in0.0 mm 0.00 in0.0 mm
01:32 AM 48.4°F9.1°C 46.4°F8.0°C 93% 0.9 mph WSW1.4 kmh WSW 0.9 mph1.4 kmh 30.50 in1032.8 mb - 0.00 in0.0 mm 0.00 in0.0 mm
01:27 AM 48.4°F9.1°C 46.4°F8.0°C 93% 0.9 mph W1.4 kmh W 2.9 mph4.7 kmh 30.50 in1032.8 mb - 0.00 in0.0 mm 0.00 in0.0 mm
01:22 AM 48.4°F9.1°C 46.4°F8.0°C 93% 0.9 mph WSW1.4 kmh WSW 0.9 mph1.4 kmh 30.50 in1032.8 mb - 0.00 in0.0 mm 0.00 in0.0 mm
01:17 AM 48.4°F9.1°C 46.4°F8.0°C 93% 0.9 mph SW1.4 kmh SW 0.9 mph1.4 kmh 30.50 in1032.8 mb - 0.00 in0.0 mm 0.00 in0.0 mm
01:12 AM 48.4°F9.1°C 46.4°F8.0°C 93% 0.9 mph NW1.4 kmh NW -- 30.50 in1032.8 mb - 0.00 in0.0 mm 0.00 in0.0 mm
01:07 AM 48.4°F9.1°C 46.4°F8.0°C 93% 0.9 mph WSW1.4 kmh WSW -- 30.50 in1032.8 mb - 0.00 in0.0 mm 0.00 in0.0 mm
01:02 AM 48.4°F9.1°C 46.2°F7.9°C 92% 0.9 mph WSW1.4 kmh WSW 2.0 mph3.2 kmh 30.50 in1032.8 mb - 0.00 in0.0 mm 0.00 in0.0 mm
12:57 AM 48.4°F9.1°C 46.2°F7.9°C 92% 0.9 mph WSW1.4 kmh WSW 0.9 mph1.4 kmh 30.49 in1032.5 mb - 0.00 in0.0 mm 0.00 in0.0 mm
12:52 AM 48.6°F9.2°C 46.4°F8.0°C 92% 0.9 mph SW1.4 kmh SW -- 30.49 in1032.5 mb - 0.00 in0.0 mm 0.00 in0.0 mm
12:47 AM 48.6°F9.2°C 46.4°F8.0°C 92% 0.9 mph SW1.4 kmh SW -- 30.49 in1032.5 mb - 0.00 in0.0 mm 0.00 in0.0 mm
12:42 AM 48.7°F9.3°C 46.2°F7.9°C 91% Calm Calm -- 30.49 in1032.5 mb - 0.00 in0.0 mm 0.00 in0.0 mm
12:37 AM 48.7°F9.3°C 46.2°F7.9°C 91% 0.9 mph W1.4 kmh W -- 30.49 in1032.5 mb - 0.00 in0.0 mm 0.00 in0.0 mm
12:32 AM 48.9°F9.4°C 46.4°F8.0°C 91% 0.9 mph WSW1.4 kmh WSW 2.9 mph4.7 kmh 30.49 in1032.5 mb - 0.00 in0.0 mm 0.00 in0.0 mm
12:27 AM 48.9°F9.4°C 46.0°F7.8°C 90% 0.9 mph W1.4 kmh W -- 30.49 in1032.5 mb - 0.00 in0.0 mm 0.00 in0.0 mm
12:22 AM 48.9°F9.4°C 46.0°F7.8°C 90% 0.9 mph WSW1.4 kmh WSW -- 30.49 in1032.5 mb - 0.00 in0.0 mm 0.00 in0.0 mm
12:17 AM 49.3°F9.6°C 46.4°F8.0°C 90% 0.9 mph W1.4 kmh W 0.9 mph1.4 kmh 30.49 in1032.5 mb - 0.00 in0.0 mm 0.00 in0.0 mm
12:12 AM 49.3°F9.6°C 46.2°F7.9°C 89% 0.9 mph NW1.4 kmh NW 4.0 mph6.4 kmh 30.49 in1032.5 mb - 0.00 in0.0 mm 0.00 in0.0 mm
12:07 AM 49.3°F9.6°C 46.2°F7.9°C 89% 2.0 mph WSW3.2 kmh WSW 0.9 mph1.4 kmh 30.48 in1032.2 mb - 0.00 in0.0 mm 0.00 in0.0 mm
12:02 AM 49.5°F9.7°C 46.0°F7.8°C 88% 2.0 mph NW3.2 kmh NW 2.0 mph3.2 kmh 30.48 in1032.2 mb - 0.00 in0.0 mm 0.03 in0.8 mm